sensor_id;sensor_type;location;lat;lon;timestamp;P1;durP1;ratioP1;P2;durP2;ratioP2
2438;SDS011;14509;47.992;7.848;2023-02-28T00:00:13;6.80;;;3.17;;
2438;SDS011;14509;47.992;7.848;2023-02-28T00:02:17;2.30;;;2.10;;
2438;SDS011;14509;47.992;7.848;2023-02-28T00:04:19;3.28;;;2.97;;
2438;SDS011;14509;47.992;7.848;2023-02-28T00:06:20;5.30;;;2.50;;
2438;SDS011;14509;47.992;7.848;2023-02-28T00:08:22;3.63;;;2.90;;
2438;SDS011;14509;47.992;7.848;2023-02-28T00:10:25;2.88;;;2.67;;
2438;SDS011;14509;47.992;7.848;2023-02-28T00:12:28;3.78;;;3.08;;
2438;SDS011;14509;47.992;7.848;2023-02-28T00:14:30;3.00;;;2.58;;
2438;SDS011;14509;47.992;7.848;2023-02-28T00:16:32;3.95;;;2.92;;
2438;SDS011;14509;47.992;7.848;2023-02-28T00:18:36;4.10;;;2.80;;
2438;SDS011;14509;47.992;7.848;2023-02-28T00:20:38;3.25;;;2.85;;
2438;SDS011;14509;47.992;7.848;2023-02-28T00:22:40;7.88;;;3.50;;
2438;SDS011;14509;47.992;7.848;2023-02-28T00:24:43;2.90;;;2.55;;
2438;SDS011;14509;47.992;7.848;2023-02-28T00:26:45;3.03;;;2.83;;
2438;SDS011;14509;47.992;7.848;2023-02-28T00:28:47;3.30;;;3.00;;
2438;SDS011;14509;47.992;7.848;2023-02-28T00:30:49;3.70;;;2.92;;
2438;SDS011;14509;47.992;7.848;2023-02-28T00:32:51;2.60;;;2.40;;
2438;SDS011;14509;47.992;7.848;2023-02-28T00:34:54;3.03;;;2.80;;
2438;SDS011;14509;47.992;7.848;2023-02-28T00:36:56;2.90;;;2.38;;
2438;SDS011;14509;47.992;7.848;2023-02-28T00:38:58;3.70;;;2.45;;
2438;SDS011;14509;47.992;7.848;2023-02-28T00:41:01;3.70;;;3.08;;
2438;SDS011;14509;47.992;7.848;2023-02-28T00:43:04;3.10;;;2.80;;
2438;SDS011;14509;47.992;7.848;2023-02-28T00:45:07;3.83;;;2.83;;
2438;SDS011;14509;47.992;7.848;2023-02-28T00:47:11;4.45;;;3.50;;
2438;SDS011;14509;47.992;7.848;2023-02-28T00:49:13;3.05;;;2.50;;
2438;SDS011;14509;47.992;7.848;2023-02-28T00:51:17;3.70;;;3.33;;
2438;SDS011;14509;47.992;7.848;2023-02-28T00:53:19;6.13;;;3.25;;
2438;SDS011;14509;47.992;7.848;2023-02-28T00:55:22;3.60;;;2.80;;
2438;SDS011;14509;47.992;7.848;2023-02-28T00:57:23;4.13;;;2.95;;
2438;SDS011;14509;47.992;7.848;2023-02-28T00:59:26;3.92;;;3.60;;
2438;SDS011;14509;47.992;7.848;2023-02-28T01:01:28;3.30;;;2.80;;
2438;SDS011;14509;47.992;7.848;2023-02-28T01:03:30;3.38;;;3.08;;
2438;SDS011;14509;47.992;7.848;2023-02-28T01:05:32;6.60;;;3.47;;
2438;SDS011;14509;47.992;7.848;2023-02-28T01:07:35;4.90;;;2.95;;
2438;SDS011;14509;47.992;7.848;2023-02-28T01:09:38;4.20;;;3.35;;
2438;SDS011;14509;47.992;7.848;2023-02-28T01:11:40;3.28;;;3.00;;
2438;SDS011;14509;47.992;7.848;2023-02-28T01:13:44;2.80;;;2.60;;
2438;SDS011;14509;47.992;7.848;2023-02-28T01:15:48;4.63;;;4.03;;
2438;SDS011;14509;47.992;7.848;2023-02-28T01:17:51;2.70;;;2.50;;
2438;SDS011;14509;47.992;7.848;2023-02-28T01:19:53;3.97;;;3.38;;
2438;SDS011;14509;47.992;7.848;2023-02-28T01:22:00;4.40;;;3.45;;
2438;SDS011;14509;47.992;7.848;2023-02-28T01:24:04;2.70;;;2.50;;
2438;SDS011;14509;47.992;7.848;2023-02-28T01:26:10;3.72;;;3.28;;
2438;SDS011;14509;47.992;7.848;2023-02-28T01:28:14;3.15;;;2.83;;
2438;SDS011;14509;47.992;7.848;2023-02-28T01:30:16;3.28;;;3.08;;
2438;SDS011;14509;47.992;7.848;2023-02-28T01:32:21;3.17;;;2.47;;
2438;SDS011;14509;47.992;7.848;2023-02-28T01:34:24;5.00;;;3.17;;
2438;SDS011;14509;47.992;7.848;2023-02-28T01:36:26;4.10;;;3.70;;
2438;SDS011;14509;47.992;7.848;2023-02-28T01:38:29;3.88;;;3.00;;
2438;SDS011;14509;47.992;7.848;2023-02-28T01:40:32;7.18;;;3.75;;
2438;SDS011;14509;47.992;7.848;2023-02-28T01:42:34;6.88;;;4.10;;
2438;SDS011;14509;47.992;7.848;2023-02-28T01:44:55;2.67;;;2.47;;
2438;SDS011;14509;47.992;7.848;2023-02-28T01:47:00;4.13;;;3.03;;
2438;SDS011;14509;47.992;7.848;2023-02-28T01:49:06;3.20;;;2.70;;
2438;SDS011;14509;47.992;7.848;2023-02-28T01:51:14;2.88;;;2.33;;
2438;SDS011;14509;47.992;7.848;2023-02-28T01:53:21;5.65;;;2.95;;
2438;SDS011;14509;47.992;7.848;2023-02-28T01:55:27;3.17;;;2.78;;
2438;SDS011;14509;47.992;7.848;2023-02-28T01:57:34;3.25;;;2.95;;
2438;SDS011;14509;47.992;7.848;2023-02-28T01:59:41;4.05;;;3.60;;
2438;SDS011;14509;47.992;7.848;2023-02-28T02:01:48;5.55;;;3.17;;
2438;SDS011;14509;47.992;7.848;2023-02-28T02:03:53;2.92;;;2.67;;
2438;SDS011;14509;47.992;7.848;2023-02-28T02:05:59;3.40;;;3.10;;
2438;SDS011;14509;47.992;7.848;2023-02-28T02:08:02;3.60;;;3.30;;
2438;SDS011;14509;47.992;7.848;2023-02-28T02:10:09;3.25;;;2.90;;
2438;SDS011;14509;47.992;7.848;2023-02-28T02:12:17;3.13;;;2.83;;
2438;SDS011;14509;47.992;7.848;2023-02-28T02:14:36;3.88;;;2.92;;
2438;SDS011;14509;47.992;7.848;2023-02-28T02:16:52;4.85;;;3.80;;
2438;SDS011;14509;47.992;7.848;2023-02-28T02:19:08;5.93;;;3.50;;
2438;SDS011;14509;47.992;7.848;2023-02-28T02:26:47;3.25;;;2.60;;
2438;SDS011;14509;47.992;7.848;2023-02-28T02:29:27;5.60;;;2.63;;
2438;SDS011;14509;47.992;7.848;2023-02-28T02:32:04;4.15;;;2.95;;
2438;SDS011;14509;47.992;7.848;2023-02-28T02:34:24;3.40;;;2.78;;
2438;SDS011;14509;47.992;7.848;2023-02-28T02:36:36;5.35;;;3.45;;
2438;SDS011;14509;47.992;7.848;2023-02-28T02:38:42;3.58;;;2.42;;
2438;SDS011;14509;47.992;7.848;2023-02-28T02:40:51;4.72;;;3.22;;
2438;SDS011;14509;47.992;7.848;2023-02-28T02:43:02;3.30;;;2.67;;
2438;SDS011;14509;47.992;7.848;2023-02-28T02:45:09;2.63;;;2.42;;
2438;SDS011;14509;47.992;7.848;2023-02-28T02:47:14;2.22;;;2.13;;
2438;SDS011;14509;47.992;7.848;2023-02-28T02:49:19;4.10;;;3.50;;
2438;SDS011;14509;47.992;7.848;2023-02-28T02:51:26;3.60;;;2.72;;
2438;SDS011;14509;47.992;7.848;2023-02-28T02:53:32;6.00;;;3.65;;
2438;SDS011;14509;47.992;7.848;2023-02-28T02:55:39;3.25;;;2.63;;
2438;SDS011;14509;47.992;7.848;2023-02-28T02:57:45;4.38;;;2.67;;
2438;SDS011;14509;47.992;7.848;2023-02-28T02:59:49;7.60;;;3.60;;
2438;SDS011;14509;47.992;7.848;2023-02-28T03:01:56;4.95;;;3.90;;
2438;SDS011;14509;47.992;7.848;2023-02-28T03:04:01;5.28;;;3.45;;
2438;SDS011;14509;47.992;7.848;2023-02-28T03:06:07;3.85;;;2.70;;
2438;SDS011;14509;47.992;7.848;2023-02-28T03:08:10;3.53;;;2.88;;
2438;SDS011;14509;47.992;7.848;2023-02-28T03:10:28;4.28;;;3.42;;
2438;SDS011;14509;47.992;7.848;2023-02-28T03:12:33;4.18;;;2.85;;
2438;SDS011;14509;47.992;7.848;2023-02-28T03:14:45;3.35;;;3.05;;
2438;SDS011;14509;47.992;7.848;2023-02-28T03:17:00;2.95;;;2.75;;
2438;SDS011;14509;47.992;7.848;2023-02-28T03:19:16;3.67;;;3.10;;
2438;SDS011;14509;47.992;7.848;2023-02-28T03:21:27;2.95;;;2.75;;
2438;SDS011;14509;47.992;7.848;2023-02-28T03:23:36;3.05;;;2.75;;
2438;SDS011;14509;47.992;7.848;2023-02-28T03:25:50;2.47;;;2.28;;
2438;SDS011;14509;47.992;7.848;2023-02-28T03:28:01;4.20;;;3.13;;
2438;SDS011;14509;47.992;7.848;2023-02-28T03:30:09;3.17;;;2.88;;
2438;SDS011;14509;47.992;7.848;2023-02-28T03:32:16;4.22;;;3.13;;
2438;SDS011;14509;47.992;7.848;2023-02-28T03:34:24;3.08;;;2.83;;
2438;SDS011;14509;47.992;7.848;2023-02-28T03:36:31;4.53;;;2.88;;
2438;SDS011;14509;47.992;7.848;2023-02-28T03:38:44;4.80;;;3.13;;
2438;SDS011;14509;47.992;7.848;2023-02-28T03:40:50;3.75;;;2.42;;
2438;SDS011;14509;47.992;7.848;2023-02-28T03:43:10;5.45;;;2.97;;
2438;SDS011;14509;47.992;7.848;2023-02-28T03:45:18;2.72;;;2.42;;
2438;SDS011;14509;47.992;7.848;2023-02-28T03:47:24;2.60;;;2.40;;
2438;SDS011;14509;47.992;7.848;2023-02-28T03:49:30;3.30;;;3.05;;
2438;SDS011;14509;47.992;7.848;2023-02-28T03:51:36;2.60;;;2.40;;
2438;SDS011;14509;47.992;7.848;2023-02-28T03:53:42;2.45;;;2.25;;
2438;SDS011;14509;47.992;7.848;2023-02-28T03:55:48;2.97;;;2.78;;
2438;SDS011;14509;47.992;7.848;2023-02-28T03:57:56;2.95;;;2.75;;
2438;SDS011;14509;47.992;7.848;2023-02-28T04:00:05;2.33;;;2.22;;
2438;SDS011;14509;47.992;7.848;2023-02-28T04:02:12;3.53;;;3.22;;
2438;SDS011;14509;47.992;7.848;2023-02-28T04:04:15;5.65;;;3.60;;
2438;SDS011;14509;47.992;7.848;2023-02-28T04:06:19;4.45;;;3.30;;
2438;SDS011;14509;47.992;7.848;2023-02-28T04:08:22;2.72;;;2.55;;
2438;SDS011;14509;47.992;7.848;2023-02-28T04:10:25;3.53;;;3.22;;
2438;SDS011;14509;47.992;7.848;2023-02-28T04:12:27;5.45;;;3.30;;
2438;SDS011;14509;47.992;7.848;2023-02-28T04:14:29;2.80;;;2.60;;
2438;SDS011;14509;47.992;7.848;2023-02-28T04:16:32;4.13;;;3.08;;
2438;SDS011;14509;47.992;7.848;2023-02-28T04:18:35;3.40;;;3.10;;
2438;SDS011;14509;47.992;7.848;2023-02-28T04:20:37;3.78;;;3.38;;
2438;SDS011;14509;47.992;7.848;2023-02-28T04:22:39;3.65;;;2.70;;
2438;SDS011;14509;47.992;7.848;2023-02-28T04:24:41;4.50;;;3.25;;
2438;SDS011;14509;47.992;7.848;2023-02-28T04:26:45;5.07;;;3.55;;
2438;SDS011;14509;47.992;7.848;2023-02-28T04:28:48;3.80;;;3.15;;
2438;SDS011;14509;47.992;7.848;2023-02-28T04:30:54;3.90;;;3.60;;
2438;SDS011;14509;47.992;7.848;2023-02-28T04:32:56;6.10;;;3.85;;
2438;SDS011;14509;47.992;7.848;2023-02-28T04:34:58;3.65;;;3.33;;
2438;SDS011;14509;47.992;7.848;2023-02-28T04:37:00;4.18;;;3.75;;
2438;SDS011;14509;47.992;7.848;2023-02-28T04:39:03;3.83;;;3.38;;
2438;SDS011;14509;47.992;7.848;2023-02-28T04:41:05;3.75;;;3.40;;
2438;SDS011;14509;47.992;7.848;2023-02-28T04:43:08;5.25;;;4.20;;
2438;SDS011;14509;47.992;7.848;2023-02-28T04:45:10;4.13;;;3.50;;
2438;SDS011;14509;47.992;7.848;2023-02-28T04:47:12;5.55;;;4.40;;
2438;SDS011;14509;47.992;7.848;2023-02-28T04:49:15;8.15;;;3.35;;
2438;SDS011;14509;47.992;7.848;2023-02-28T04:51:17;3.58;;;3.38;;
2438;SDS011;14509;47.992;7.848;2023-02-28T04:53:20;4.18;;;3.50;;
2438;SDS011;14509;47.992;7.848;2023-02-28T04:55:22;3.25;;;3.05;;
2438;SDS011;14509;47.992;7.848;2023-02-28T04:57:24;3.20;;;2.90;;
2438;SDS011;14509;47.992;7.848;2023-02-28T04:59:28;3.78;;;3.45;;
2438;SDS011;14509;47.992;7.848;2023-02-28T05:01:31;4.95;;;3.20;;
2438;SDS011;14509;47.992;7.848;2023-02-28T05:03:34;5.70;;;3.67;;
2438;SDS011;14509;47.992;7.848;2023-02-28T05:05:36;3.45;;;3.15;;
2438;SDS011;14509;47.992;7.848;2023-02-28T05:07:38;4.20;;;3.22;;
2438;SDS011;14509;47.992;7.848;2023-02-28T05:09:40;6.32;;;3.97;;
2438;SDS011;14509;47.992;7.848;2023-02-28T05:11:42;4.50;;;3.58;;
2438;SDS011;14509;47.992;7.848;2023-02-28T05:13:44;3.28;;;2.97;;
2438;SDS011;14509;47.992;7.848;2023-02-28T05:15:47;4.15;;;3.75;;
2438;SDS011;14509;47.992;7.848;2023-02-28T05:17:49;7.82;;;3.20;;
2438;SDS011;14509;47.992;7.848;2023-02-28T05:19:51;4.22;;;3.35;;
2438;SDS011;14509;47.992;7.848;2023-02-28T05:21:53;6.78;;;4.15;;
2438;SDS011;14509;47.992;7.848;2023-02-28T05:23:56;4.07;;;3.67;;
2438;SDS011;14509;47.992;7.848;2023-02-28T05:25:59;3.80;;;3.58;;
2438;SDS011;14509;47.992;7.848;2023-02-28T05:28:01;3.80;;;3.50;;
2438;SDS011;14509;47.992;7.848;2023-02-28T05:30:03;3.67;;;3.35;;
2438;SDS011;14509;47.992;7.848;2023-02-28T05:32:07;5.05;;;4.38;;
2438;SDS011;14509;47.992;7.848;2023-02-28T05:34:10;3.58;;;3.28;;
2438;SDS011;14509;47.992;7.848;2023-02-28T05:36:12;4.93;;;4.40;;
2438;SDS011;14509;47.992;7.848;2023-02-28T05:38:14;4.60;;;4.20;;
2438;SDS011;14509;47.992;7.848;2023-02-28T05:40:17;6.15;;;3.88;;
2438;SDS011;14509;47.992;7.848;2023-02-28T05:42:20;4.13;;;3.50;;
2438;SDS011;14509;47.992;7.848;2023-02-28T05:44:22;6.15;;;4.30;;
2438;SDS011;14509;47.992;7.848;2023-02-28T05:46:24;3.78;;;3.47;;
2438;SDS011;14509;47.992;7.848;2023-02-28T05:48:27;5.65;;;4.13;;
2438;SDS011;14509;47.992;7.848;2023-02-28T05:50:29;5.22;;;4.25;;
2438;SDS011;14509;47.992;7.848;2023-02-28T05:52:31;3.67;;;3.38;;
2438;SDS011;14509;47.992;7.848;2023-02-28T05:54:33;5.00;;;3.65;;
2438;SDS011;14509;47.992;7.848;2023-02-28T05:56:35;5.18;;;3.70;;
2438;SDS011;14509;47.992;7.848;2023-02-28T05:58:39;5.07;;;4.57;;
2438;SDS011;14509;47.992;7.848;2023-02-28T06:00:40;4.72;;;4.13;;
2438;SDS011;14509;47.992;7.848;2023-02-28T06:02:42;3.63;;;3.33;;
2438;SDS011;14509;47.992;7.848;2023-02-28T06:04:45;4.50;;;4.10;;
2438;SDS011;14509;47.992;7.848;2023-02-28T06:06:48;4.18;;;3.78;;
2438;SDS011;14509;47.992;7.848;2023-02-28T06:08:50;3.90;;;3.60;;
2438;SDS011;14509;47.992;7.848;2023-02-28T06:10:52;4.47;;;4.13;;
2438;SDS011;14509;47.992;7.848;2023-02-28T06:12:54;3.72;;;2.92;;
2438;SDS011;14509;47.992;7.848;2023-02-28T06:14:56;5.10;;;4.60;;
2438;SDS011;14509;47.992;7.848;2023-02-28T06:16:58;6.22;;;5.63;;
2438;SDS011;14509;47.992;7.848;2023-02-28T06:19:02;4.63;;;4.10;;
2438;SDS011;14509;47.992;7.848;2023-02-28T06:21:06;4.75;;;4.35;;
2438;SDS011;14509;47.992;7.848;2023-02-28T06:23:08;4.40;;;4.10;;
2438;SDS011;14509;47.992;7.848;2023-02-28T06:25:10;5.85;;;4.60;;
2438;SDS011;14509;47.992;7.848;2023-02-28T06:27:12;5.38;;;4.88;;
2438;SDS011;14509;47.992;7.848;2023-02-28T06:29:14;4.90;;;4.03;;
2438;SDS011;14509;47.992;7.848;2023-02-28T06:31:18;4.75;;;4.28;;
2438;SDS011;14509;47.992;7.848;2023-02-28T06:33:20;4.22;;;3.75;;
2438;SDS011;14509;47.992;7.848;2023-02-28T06:35:22;5.65;;;5.15;;
2438;SDS011;14509;47.992;7.848;2023-02-28T06:37:25;6.20;;;5.65;;
2438;SDS011;14509;47.992;7.848;2023-02-28T06:39:27;7.40;;;3.35;;
2438;SDS011;14509;47.992;7.848;2023-02-28T06:41:29;5.75;;;5.15;;
2438;SDS011;14509;47.992;7.848;2023-02-28T06:43:32;5.40;;;4.13;;
2438;SDS011;14509;47.992;7.848;2023-02-28T06:45:35;4.53;;;4.10;;
2438;SDS011;14509;47.992;7.848;2023-02-28T06:47:38;4.95;;;3.97;;
2438;SDS011;14509;47.992;7.848;2023-02-28T06:49:41;6.47;;;4.88;;
2438;SDS011;14509;47.992;7.848;2023-02-28T06:51:45;5.30;;;4.90;;
2438;SDS011;14509;47.992;7.848;2023-02-28T06:53:48;6.13;;;4.03;;
2438;SDS011;14509;47.992;7.848;2023-02-28T06:55:50;8.35;;;3.97;;
2438;SDS011;14509;47.992;7.848;2023-02-28T06:57:51;4.57;;;3.63;;
2438;SDS011;14509;47.992;7.848;2023-02-28T06:59:54;6.13;;;4.30;;
2438;SDS011;14509;47.992;7.848;2023-02-28T07:01:56;4.75;;;4.38;;
2438;SDS011;14509;47.992;7.848;2023-02-28T07:03:59;4.30;;;3.90;;
2438;SDS011;14509;47.992;7.848;2023-02-28T07:06:01;6.38;;;4.22;;
2438;SDS011;14509;47.992;7.848;2023-02-28T07:08:04;6.63;;;5.03;;
2438;SDS011;14509;47.992;7.848;2023-02-28T07:10:09;5.57;;;4.30;;
2438;SDS011;14509;47.992;7.848;2023-02-28T07:12:13;7.05;;;5.00;;
2438;SDS011;14509;47.992;7.848;2023-02-28T07:14:15;8.45;;;4.13;;
2438;SDS011;14509;47.992;7.848;2023-02-28T07:16:16;4.63;;;4.22;;
2438;SDS011;14509;47.992;7.848;2023-02-28T07:18:18;9.30;;;4.65;;
2438;SDS011;14509;47.992;7.848;2023-02-28T07:20:20;5.50;;;5.00;;
2438;SDS011;14509;47.992;7.848;2023-02-28T07:22:23;4.30;;;4.00;;
2438;SDS011;14509;47.992;7.848;2023-02-28T07:24:25;6.28;;;4.10;;
2438;SDS011;14509;47.992;7.848;2023-02-28T07:26:29;8.38;;;5.15;;
2438;SDS011;14509;47.992;7.848;2023-02-28T07:28:34;6.03;;;5.38;;
2438;SDS011;14509;47.992;7.848;2023-02-28T07:30:36;3.28;;;2.97;;
2438;SDS011;14509;47.992;7.848;2023-02-28T07:32:38;5.25;;;4.10;;
2438;SDS011;14509;47.992;7.848;2023-02-28T07:34:39;9.90;;;4.75;;
2438;SDS011;14509;47.992;7.848;2023-02-28T07:36:41;4.68;;;4.13;;
2438;SDS011;14509;47.992;7.848;2023-02-28T07:38:44;6.00;;;5.43;;
2438;SDS011;14509;47.992;7.848;2023-02-28T07:40:48;4.38;;;4.05;;
2438;SDS011;14509;47.992;7.848;2023-02-28T07:42:51;6.03;;;5.03;;
2438;SDS011;14509;47.992;7.848;2023-02-28T07:44:53;7.57;;;5.38;;
2438;SDS011;14509;47.992;7.848;2023-02-28T07:46:55;5.32;;;4.50;;
2438;SDS011;14509;47.992;7.848;2023-02-28T07:48:57;6.13;;;4.13;;
2438;SDS011;14509;47.992;7.848;2023-02-28T07:51:00;4.72;;;4.30;;
2438;SDS011;14509;47.992;7.848;2023-02-28T07:53:03;6.30;;;4.32;;
2438;SDS011;14509;47.992;7.848;2023-02-28T07:55:06;7.63;;;4.93;;
2438;SDS011;14509;47.992;7.848;2023-02-28T07:57:09;6.82;;;4.68;;
2438;SDS011;14509;47.992;7.848;2023-02-28T07:59:13;4.65;;;4.22;;
2438;SDS011;14509;47.992;7.848;2023-02-28T08:01:16;5.22;;;4.30;;
2438;SDS011;14509;47.992;7.848;2023-02-28T08:03:20;5.25;;;4.75;;
2438;SDS011;14509;47.992;7.848;2023-02-28T08:05:23;6.15;;;5.55;;
2438;SDS011;14509;47.992;7.848;2023-02-28T08:07:25;5.35;;;4.30;;
2438;SDS011;14509;47.992;7.848;2023-02-28T08:09:27;4.30;;;3.90;;
2438;SDS011;14509;47.992;7.848;2023-02-28T08:11:30;4.75;;;3.70;;
2438;SDS011;14509;47.992;7.848;2023-02-28T08:13:33;5.47;;;4.43;;
2438;SDS011;14509;47.992;7.848;2023-02-28T08:15:37;4.25;;;3.80;;
2438;SDS011;14509;47.992;7.848;2023-02-28T08:17:39;9.52;;;4.97;;
2438;SDS011;14509;47.992;7.848;2023-02-28T08:19:41;13.90;;;4.55;;
2438;SDS011;14509;47.992;7.848;2023-02-28T08:21:46;7.38;;;4.38;;
2438;SDS011;14509;47.992;7.848;2023-02-28T08:23:51;6.03;;;5.53;;
2438;SDS011;14509;47.992;7.848;2023-02-28T08:25:53;5.18;;;4.68;;
2438;SDS011;14509;47.992;7.848;2023-02-28T08:27:57;5.10;;;4.70;;
2438;SDS011;14509;47.992;7.848;2023-02-28T08:30:03;7.18;;;5.05;;
2438;SDS011;14509;47.992;7.848;2023-02-28T08:32:08;7.57;;;5.13;;
2438;SDS011;14509;47.992;7.848;2023-02-28T08:34:12;8.43;;;4.57;;
2438;SDS011;14509;47.992;7.848;2023-02-28T08:36:15;4.05;;;3.65;;
2438;SDS011;14509;47.992;7.848;2023-02-28T08:38:17;6.65;;;4.95;;
2438;SDS011;14509;47.992;7.848;2023-02-28T08:40:21;4.80;;;4.40;;
2438;SDS011;14509;47.992;7.848;2023-02-28T08:42:23;6.68;;;5.75;;
2438;SDS011;14509;47.992;7.848;2023-02-28T08:44:37;5.05;;;4.55;;
2438;SDS011;14509;47.992;7.848;2023-02-28T08:46:48;7.70;;;4.47;;
2438;SDS011;14509;47.992;7.848;2023-02-28T08:48:57;4.50;;;4.03;;
2438;SDS011;14509;47.992;7.848;2023-02-28T08:51:10;5.72;;;5.13;;
2438;SDS011;14509;47.992;7.848;2023-02-28T08:53:16;7.10;;;6.07;;
2438;SDS011;14509;47.992;7.848;2023-02-28T08:55:18;4.95;;;4.30;;
2438;SDS011;14509;47.992;7.848;2023-02-28T08:57:24;8.18;;;5.18;;
2438;SDS011;14509;47.992;7.848;2023-02-28T08:59:28;5.20;;;4.70;;
2438;SDS011;14509;47.992;7.848;2023-02-28T09:01:30;5.60;;;3.70;;
2438;SDS011;14509;47.992;7.848;2023-02-28T09:03:42;8.25;;;4.78;;
2438;SDS011;14509;47.992;7.848;2023-02-28T09:05:53;4.93;;;4.53;;
2438;SDS011;14509;47.992;7.848;2023-02-28T09:07:57;6.75;;;5.05;;
2438;SDS011;14509;47.992;7.848;2023-02-28T09:10:00;7.32;;;5.32;;
2438;SDS011;14509;47.992;7.848;2023-02-28T09:12:02;6.13;;;5.47;;
2438;SDS011;14509;47.992;7.848;2023-02-28T09:14:08;4.95;;;4.43;;
2438;SDS011;14509;47.992;7.848;2023-02-28T09:16:11;6.25;;;4.55;;
2438;SDS011;14509;47.992;7.848;2023-02-28T09:18:14;9.48;;;6.35;;
2438;SDS011;14509;47.992;7.848;2023-02-28T09:20:17;6.13;;;4.80;;
2438;SDS011;14509;47.992;7.848;2023-02-28T09:22:21;6.43;;;4.80;;
2438;SDS011;14509;47.992;7.848;2023-02-28T09:24:25;7.53;;;5.35;;
2438;SDS011;14509;47.992;7.848;2023-02-28T09:26:27;5.38;;;4.80;;
2438;SDS011;14509;47.992;7.848;2023-02-28T09:28:29;5.68;;;5.13;;
2438;SDS011;14509;47.992;7.848;2023-02-28T09:30:32;6.82;;;5.57;;
2438;SDS011;14509;47.992;7.848;2023-02-28T09:32:54;6.80;;;5.53;;
2438;SDS011;14509;47.992;7.848;2023-02-28T09:34:59;5.10;;;4.70;;
2438;SDS011;14509;47.992;7.848;2023-02-28T09:37:05;5.10;;;4.70;;
2438;SDS011;14509;47.992;7.848;2023-02-28T09:39:13;8.00;;;6.20;;
2438;SDS011;14509;47.992;7.848;2023-02-28T09:41:16;6.45;;;5.85;;
2438;SDS011;14509;47.992;7.848;2023-02-28T09:43:22;8.38;;;4.93;;
2438;SDS011;14509;47.992;7.848;2023-02-28T09:45:36;7.28;;;4.95;;
2438;SDS011;14509;47.992;7.848;2023-02-28T09:47:47;6.70;;;5.18;;
2438;SDS011;14509;47.992;7.848;2023-02-28T09:49:56;7.13;;;5.80;;
2438;SDS011;14509;47.992;7.848;2023-02-28T09:52:05;7.60;;;5.47;;
2438;SDS011;14509;47.992;7.848;2023-02-28T09:54:27;6.72;;;5.50;;
2438;SDS011;14509;47.992;7.848;2023-02-28T09:56:33;7.25;;;5.70;;
2438;SDS011;14509;47.992;7.848;2023-02-28T09:58:45;6.78;;;6.10;;
2438;SDS011;14509;47.992;7.848;2023-02-28T10:00:55;6.80;;;5.80;;
2438;SDS011;14509;47.992;7.848;2023-02-28T10:03:08;6.95;;;5.78;;
2438;SDS011;14509;47.992;7.848;2023-02-28T10:05:27;6.72;;;6.07;;
2438;SDS011;14509;47.992;7.848;2023-02-28T10:07:41;6.72;;;5.97;;
2438;SDS011;14509;47.992;7.848;2023-02-28T10:10:03;6.32;;;5.72;;
2438;SDS011;14509;47.992;7.848;2023-02-28T10:12:14;7.00;;;5.43;;
2438;SDS011;14509;47.992;7.848;2023-02-28T10:14:42;6.32;;;4.97;;
2438;SDS011;14509;47.992;7.848;2023-02-28T10:16:53;9.23;;;5.93;;
2438;SDS011;14509;47.992;7.848;2023-02-28T10:19:09;5.80;;;5.30;;
2438;SDS011;14509;47.992;7.848;2023-02-28T10:21:21;6.05;;;5.00;;
2438;SDS011;14509;47.992;7.848;2023-02-28T10:23:27;9.35;;;5.85;;
2438;SDS011;14509;47.992;7.848;2023-02-28T10:25:35;9.20;;;6.07;;
2438;SDS011;14509;47.992;7.848;2023-02-28T10:27:39;7.57;;;6.00;;
2438;SDS011;14509;47.992;7.848;2023-02-28T10:29:43;6.50;;;5.90;;
2438;SDS011;14509;47.992;7.848;2023-02-28T10:31:47;9.23;;;5.20;;
2438;SDS011;14509;47.992;7.848;2023-02-28T10:33:50;5.05;;;4.43;;
2438;SDS011;14509;47.992;7.848;2023-02-28T10:35:52;6.00;;;5.40;;
2438;SDS011;14509;47.992;7.848;2023-02-28T10:37:58;7.43;;;6.15;;
2438;SDS011;14509;47.992;7.848;2023-02-28T10:40:51;7.15;;;5.05;;
2438;SDS011;14509;47.992;7.848;2023-02-28T10:43:16;6.43;;;5.30;;
2438;SDS011;14509;47.992;7.848;2023-02-28T10:45:25;9.50;;;5.20;;
2438;SDS011;14509;47.992;7.848;2023-02-28T10:47:29;8.87;;;6.77;;
2438;SDS011;14509;47.992;7.848;2023-02-28T10:49:33;6.50;;;4.87;;
2438;SDS011;14509;47.992;7.848;2023-02-28T10:51:47;6.47;;;5.30;;
2438;SDS011;14509;47.992;7.848;2023-02-28T10:53:55;7.00;;;4.88;;
2438;SDS011;14509;47.992;7.848;2023-02-28T10:56:00;7.10;;;5.47;;
2438;SDS011;14509;47.992;7.848;2023-02-28T10:58:11;6.07;;;5.50;;
2438;SDS011;14509;47.992;7.848;2023-02-28T11:00:22;6.70;;;6.00;;
2438;SDS011;14509;47.992;7.848;2023-02-28T11:02:30;6.47;;;5.03;;
2438;SDS011;14509;47.992;7.848;2023-02-28T11:05:28;9.70;;;6.73;;
2438;SDS011;14509;47.992;7.848;2023-02-28T11:07:34;5.00;;;4.50;;
2438;SDS011;14509;47.992;7.848;2023-02-28T11:09:39;8.03;;;6.10;;
2438;SDS011;14509;47.992;7.848;2023-02-28T11:11:59;8.50;;;5.80;;
2438;SDS011;14509;47.992;7.848;2023-02-28T11:14:17;8.30;;;5.83;;
2438;SDS011;14509;47.992;7.848;2023-02-28T11:16:33;8.63;;;6.72;;
2438;SDS011;14509;47.992;7.848;2023-02-28T11:18:47;8.10;;;6.90;;
2438;SDS011;14509;47.992;7.848;2023-02-28T11:20:58;6.50;;;5.60;;
2438;SDS011;14509;47.992;7.848;2023-02-28T11:25:36;7.37;;;6.07;;
2438;SDS011;14509;47.992;7.848;2023-02-28T11:28:03;6.60;;;5.50;;
2438;SDS011;14509;47.992;7.848;2023-02-28T11:32:47;6.33;;;5.70;;
2438;SDS011;14509;47.992;7.848;2023-02-28T11:35:00;9.87;;;5.50;;
2438;SDS011;14509;47.992;7.848;2023-02-28T11:37:09;7.93;;;5.97;;
2438;SDS011;14509;47.992;7.848;2023-02-28T11:39:37;7.60;;;6.27;;
2438;SDS011;14509;47.992;7.848;2023-02-28T11:41:47;7.03;;;5.70;;
2438;SDS011;14509;47.992;7.848;2023-02-28T11:44:42;8.63;;;5.87;;
2438;SDS011;14509;47.992;7.848;2023-02-28T11:47:04;7.20;;;5.13;;
2438;SDS011;14509;47.992;7.848;2023-02-28T11:49:22;8.43;;;6.17;;
2438;SDS011;14509;47.992;7.848;2023-02-28T11:51:42;6.13;;;5.57;;
2438;SDS011;14509;47.992;7.848;2023-02-28T11:56:57;9.13;;;5.60;;
2438;SDS011;14509;47.992;7.848;2023-02-28T11:59:22;6.17;;;5.37;;
2438;SDS011;14509;47.992;7.848;2023-02-28T12:01:58;7.63;;;5.73;;
2438;SDS011;14509;47.992;7.848;2023-02-28T12:04:33;6.78;;;5.03;;
2438;SDS011;14509;47.992;7.848;2023-02-28T12:07:06;8.60;;;5.67;;
2438;SDS011;14509;47.992;7.848;2023-02-28T12:09:54;9.40;;;6.65;;
2438;SDS011;14509;47.992;7.848;2023-02-28T12:12:12;9.13;;;6.70;;
2438;SDS011;14509;47.992;7.848;2023-02-28T12:14:41;6.03;;;5.43;;
2438;SDS011;14509;47.992;7.848;2023-02-28T12:17:02;8.07;;;6.63;;
2438;SDS011;14509;47.992;7.848;2023-02-28T12:19:19;7.00;;;6.17;;
2438;SDS011;14509;47.992;7.848;2023-02-28T12:21:26;7.65;;;6.20;;
2438;SDS011;14509;47.992;7.848;2023-02-28T12:24:08;6.63;;;5.90;;
2438;SDS011;14509;47.992;7.848;2023-02-28T12:26:34;9.07;;;5.93;;
2438;SDS011;14509;47.992;7.848;2023-02-28T12:28:44;11.33;;;7.10;;
2438;SDS011;14509;47.992;7.848;2023-02-28T12:30:53;6.15;;;5.55;;
2438;SDS011;14509;47.992;7.848;2023-02-28T12:33:13;6.80;;;5.80;;
2438;SDS011;14509;47.992;7.848;2023-02-28T12:35:23;10.60;;;7.30;;
2438;SDS011;14509;47.992;7.848;2023-02-28T12:37:34;7.53;;;6.57;;
2438;SDS011;14509;47.992;7.848;2023-02-28T12:39:45;6.60;;;5.93;;
2438;SDS011;14509;47.992;7.848;2023-02-28T12:41:59;10.20;;;6.67;;
2438;SDS011;14509;47.992;7.848;2023-02-28T12:44:21;7.50;;;6.80;;
2438;SDS011;14509;47.992;7.848;2023-02-28T12:46:30;7.63;;;6.70;;
2438;SDS011;14509;47.992;7.848;2023-02-28T12:48:42;8.77;;;6.40;;
2438;SDS011;14509;47.992;7.848;2023-02-28T12:51:04;7.10;;;5.57;;
2438;SDS011;14509;47.992;7.848;2023-02-28T12:53:15;6.40;;;5.50;;
2438;SDS011;14509;47.992;7.848;2023-02-28T12:55:39;9.30;;;6.87;;
2438;SDS011;14509;47.992;7.848;2023-02-28T12:57:48;7.70;;;6.63;;
2438;SDS011;14509;47.992;7.848;2023-02-28T13:00:19;8.20;;;6.50;;
2438;SDS011;14509;47.992;7.848;2023-02-28T13:03:00;8.00;;;5.50;;
2438;SDS011;14509;47.992;7.848;2023-02-28T13:08:37;7.07;;;5.90;;
2438;SDS011;14509;47.992;7.848;2023-02-28T13:11:29;8.90;;;6.63;;
2438;SDS011;14509;47.992;7.848;2023-02-28T13:14:27;6.93;;;6.10;;
2438;SDS011;14509;47.992;7.848;2023-02-28T13:19:10;8.13;;;7.30;;